Time,TemperatureF,DewpointF,PressureIn,WindDirection,WindDirectionDegrees,WindSpeedMPH,WindSpeedGustMPH,Humidity,HourlyPrecipIn,Conditions,Clouds,dailyrainin,SoftwareType,DateUTC
2013-03-18 00:02:00,59.9,58.8,29.88,SW,229,0.0,0.0,96,0.00,,,0.00,meteohub,2013-03-18 05:02:00,
2013-03-18 00:07:00,59.7,58.6,29.88,SW,230,0.0,0.0,96,0.00,,,0.00,meteohub,2013-03-18 05:07:00,
2013-03-18 00:13:00,59.7,58.8,29.88,SW,229,0.0,0.0,97,0.00,,,0.00,meteohub,2013-03-18 05:13:00,
2013-03-18 00:18:00,59.7,58.8,29.88,SW,230,0.0,1.0,97,0.00,,,0.00,meteohub,2013-03-18 05:18:00,
2013-03-18 00:23:00,59.5,58.6,29.88,SW,229,0.0,1.0,97,0.00,,,0.00,meteohub,2013-03-18 05:23:00,
2013-03-18 00:28:00,59.4,58.5,29.88,SW,230,0.0,1.0,97,0.00,,,0.00,meteohub,2013-03-18 05:28:00,
2013-03-18 00:33:00,59.2,58.3,29.87,SW,229,0.0,0.0,97,0.00,,,0.00,meteohub,2013-03-18 05:33:00,
2013-03-18 00:38:00,59.0,58.1,29.88,SW,230,0.0,1.0,97,0.00,,,0.00,meteohub,2013-03-18 05:38:00,
2013-03-18 00:43:00,59.0,58.1,29.88,SW,229,0.0,1.0,97,0.00,,,0.00,meteohub,2013-03-18 05:43:00,
2013-03-18 00:48:00,58.8,57.9,29.88,SW,229,0.0,1.0,97,0.00,,,0.00,meteohub,2013-03-18 05:48:00,
2013-03-18 00:53:00,58.8,57.9,29.88,SW,229,0.0,0.0,97,0.00,,,0.00,meteohub,2013-03-18 05:53:00,
2013-03-18 00:58:00,58.8,57.9,29.87,SW,229,0.0,0.0,97,0.00,,,0.00,meteohub,2013-03-18 05:58:00,
2013-03-18 01:03:00,58.8,58.3,29.87,SW,229,0.0,0.0,98,0.00,,,0.00,meteohub,2013-03-18 06:03:00,
2013-03-18 01:08:00,59.0,58.5,29.87,SW,229,0.0,0.0,98,0.00,,,0.00,meteohub,2013-03-18 06:08:00,
2013-03-18 01:13:00,58.6,57.7,29.87,SW,229,0.0,0.0,97,0.00,,,0.00,meteohub,2013-03-18 06:13:00,
2013-03-18 01:18:00,58.6,58.1,29.86,SW,229,0.0,1.0,98,0.00,,,0.00,meteohub,2013-03-18 06:18:00,
2013-03-18 01:23:00,58.8,58.3,29.86,SW,229,0.0,1.0,98,0.00,,,0.00,meteohub,2013-03-18 06:23:00,
2013-03-18 01:28:00,59.0,58.5,29.86,SW,230,0.0,1.0,98,0.00,,,0.00,meteohub,2013-03-18 06:28:00,
2013-03-18 01:33:00,59.2,58.6,29.86,SW,229,0.0,1.0,98,0.00,,,0.00,meteohub,2013-03-18 06:33:00,
2013-03-18 01:38:00,59.2,58.6,29.86,SW,230,0.0,0.0,98,0.00,,,0.00,meteohub,2013-03-18 06:38:00,
2013-03-18 01:43:00,58.8,57.9,29.86,SW,229,0.0,0.0,97,0.00,,,0.00,meteohub,2013-03-18 06:43:00,
2013-03-18 01:48:00,58.6,58.1,29.86,SW,230,0.0,1.0,98,0.00,,,0.00,meteohub,2013-03-18 06:48:00,
2013-03-18 01:53:00,58.8,58.3,29.86,SW,229,0.0,1.0,98,0.00,,,0.00,meteohub,2013-03-18 06:53:00,
2013-03-18 01:58:00,59.2,58.8,29.86,SW,230,0.0,1.0,99,0.00,,,0.00,meteohub,2013-03-18 06:58:00,
2013-03-18 02:03:00,59.2,58.6,29.86,SW,229,0.0,1.0,98,0.00,,,0.00,meteohub,2013-03-18 07:03:00,
2013-03-18 02:08:00,58.6,58.1,29.86,SW,229,0.0,1.0,98,0.00,,,0.00,meteohub,2013-03-18 07:08:00,
2013-03-18 02:13:00,58.6,58.1,29.86,SW,229,0.0,1.0,98,0.00,,,0.00,meteohub,2013-03-18 07:13:00,
2013-03-18 02:18:00,58.6,58.1,29.86,SW,229,0.0,0.0,98,0.00,,,0.00,meteohub,2013-03-18 07:18:00,
2013-03-18 02:23:00,59.0,58.6,29.86,SW,229,0.0,0.0,99,0.00,,,0.00,meteohub,2013-03-18 07:23:00,
2013-03-18 02:28:00,59.5,59.2,29.86,SW,229,0.0,1.0,99,0.00,,,0.00,meteohub,2013-03-18 07:28:00,
2013-03-18 02:33:00,60.3,59.9,29.86,SW,229,0.0,1.0,99,0.00,,,0.00,meteohub,2013-03-18 07:33:00,
2013-03-18 02:38:00,60.8,60.4,29.86,SW,229,2.0,2.0,99,0.00,,,0.00,meteohub,2013-03-18 07:38:00,
2013-03-18 02:43:00,61.2,60.8,29.86,SW,231,1.0,3.0,99,0.00,,,0.00,meteohub,2013-03-18 07:43:00,
2013-03-18 02:49:00,61.5,61.2,29.86,SW,229,3.0,3.0,99,0.00,,,0.00,meteohub,2013-03-18 07:49:00,
2013-03-18 02:54:00,61.5,61.2,29.86,SW,229,0.0,3.0,99,0.00,,,0.00,meteohub,2013-03-18 07:54:00,
2013-03-18 02:59:00,61.9,61.5,29.86,SW,229,4.0,4.0,99,0.00,,,0.00,meteohub,2013-03-18 07:59:00,
2013-03-18 03:04:00,61.9,61.3,29.86,SW,229,0.0,3.0,98,0.00,,,0.00,meteohub,2013-03-18 08:04:00,
2013-03-18 03:09:00,61.9,61.3,29.85,SW,229,0.0,6.0,98,0.00,,,0.00,meteohub,2013-03-18 08:09:00,
2013-03-18 03:14:00,61.9,61.3,29.85,SW,229,0.0,6.0,98,0.00,,,0.00,meteohub,2013-03-18 08:14:00,
2013-03-18 03:19:00,61.9,61.3,29.86,SW,229,0.0,2.0,98,0.00,,,0.00,meteohub,2013-03-18 08:19:00,
2013-03-18 03:24:00,61.7,61.2,29.85,SW,229,1.0,2.0,98,0.00,,,0.00,meteohub,2013-03-18 08:24:00,
2013-03-18 03:29:00,61.5,61.0,29.86,SW,230,0.0,2.0,98,0.00,,,0.00,meteohub,2013-03-18 08:29:00,
2013-03-18 03:34:00,61.5,61.0,29.86,SW,229,0.0,1.0,98,0.00,,,0.00,meteohub,2013-03-18 08:34:00,
2013-03-18 03:39:00,61.7,61.2,29.85,SW,229,3.0,3.0,98,0.00,,,0.00,meteohub,2013-03-18 08:39:00,
2013-03-18 03:44:00,61.9,61.3,29.85,SW,231,1.0,2.0,98,0.00,,,0.00,meteohub,2013-03-18 08:44:00,
2013-03-18 03:49:00,61.9,61.3,29.85,SW,231,0.0,4.0,98,0.00,,,0.00,meteohub,2013-03-18 08:49:00,
2013-03-18 03:54:00,61.7,61.2,29.85,SW,231,0.0,4.0,98,0.00,,,0.00,meteohub,2013-03-18 08:54:00,
2013-03-18 03:59:00,61.5,61.0,29.85,SW,231,0.0,2.0,98,0.00,,,0.00,meteohub,2013-03-18 08:59:00,
2013-03-18 04:04:00,61.3,60.8,29.85,SW,231,0.0,2.0,98,0.00,,,0.00,meteohub,2013-03-18 09:04:00,
2013-03-18 04:09:00,61.3,60.8,29.85,SW,231,0.0,0.0,98,0.00,,,0.00,meteohub,2013-03-18 09:09:00,
2013-03-18 04:14:00,61.5,61.0,29.85,SW,231,0.0,0.0,98,0.00,,,0.00,meteohub,2013-03-18 09:14:00,
2013-03-18 04:19:00,61.7,61.2,29.85,SW,231,0.0,0.0,98,0.00,,,0.00,meteohub,2013-03-18 09:19:00,
2013-03-18 04:24:00,61.5,61.0,29.85,SW,231,0.0,0.0,98,0.00,,,0.00,meteohub,2013-03-18 09:24:00,
2013-03-18 04:29:00,61.9,61.3,29.85,SW,231,0.0,0.0,98,0.00,,,0.00,meteohub,2013-03-18 09:29:00,
2013-03-18 04:34:00,62.1,61.5,29.85,SW,231,0.0,0.0,98,0.00,,,0.00,meteohub,2013-03-18 09:34:00,
2013-03-18 04:39:00,62.2,61.9,29.85,SW,231,0.0,0.0,99,0.00,,,0.00,meteohub,2013-03-18 09:39:00,
2013-03-18 04:44:00,62.6,62.2,29.85,SW,231,2.0,0.0,99,0.00,,,0.00,meteohub,2013-03-18 09:44:00,
2013-03-18 04:49:00,62.8,62.4,29.86,SW,231,1.0,3.0,99,0.00,,,0.00,meteohub,2013-03-18 09:49:00,
2013-03-18 04:54:00,63.1,62.8,29.86,SW,231,1.0,4.0,99,0.00,,,0.00,meteohub,2013-03-18 09:54:00,
2013-03-18 04:59:00,63.3,63.0,29.86,SW,231,1.0,4.0,99,0.00,,,0.00,meteohub,2013-03-18 09:59:00,
2013-03-18 05:04:00,63.5,63.1,29.86,SW,231,2.0,4.0,99,0.00,,,0.00,meteohub,2013-03-18 10:04:00,
2013-03-18 05:09:00,63.5,63.1,29.86,SW,231,0.0,4.0,99,0.00,,,0.00,meteohub,2013-03-18 10:09:00,
2013-03-18 05:14:00,63.7,63.3,29.86,SW,231,1.0,4.0,99,0.00,,,0.00,meteohub,2013-03-18 10:14:00,
2013-03-18 05:19:00,63.7,63.3,29.86,SW,231,2.0,4.0,99,0.00,,,0.00,meteohub,2013-03-18 10:19:00,
2013-03-18 05:24:00,63.9,63.5,29.86,SW,231,2.0,4.0,99,0.00,,,0.00,meteohub,2013-03-18 10:24:00,
2013-03-18 05:29:00,63.9,63.5,29.86,SW,232,0.0,5.0,99,0.00,,,0.00,meteohub,2013-03-18 10:29:00,
2013-03-18 05:34:00,64.0,63.5,29.86,SW,232,5.0,5.0,98,0.00,,,0.00,meteohub,2013-03-18 10:34:00,
2013-03-18 05:39:00,64.0,63.5,29.86,SW,234,4.0,9.0,98,0.00,,,0.00,meteohub,2013-03-18 10:39:00,
2013-03-18 05:44:00,64.0,63.5,29.87,SW,234,3.0,9.0,98,0.00,,,0.00,meteohub,2013-03-18 10:44:00,
2013-03-18 05:49:00,64.0,63.5,29.87,SW,235,2.0,9.0,98,0.00,,,0.00,meteohub,2013-03-18 10:49:00,
2013-03-18 05:54:00,64.2,63.7,29.87,SW,234,2.0,6.0,98,0.00,,,0.00,meteohub,2013-03-18 10:54:00,
2013-03-18 05:59:00,64.2,63.7,29.87,WSW,239,4.0,6.0,98,0.00,,,0.00,meteohub,2013-03-18 10:59:00,
2013-03-18 06:04:00,64.2,63.7,29.87,SW,232,1.0,6.0,98,0.00,,,0.00,meteohub,2013-03-18 11:04:00,
2013-03-18 06:09:00,64.2,63.7,29.87,SW,232,2.0,6.0,98,0.00,,,0.00,meteohub,2013-03-18 11:09:00,
2013-03-18 06:14:00,64.2,63.7,29.87,SW,232,3.0,6.0,98,0.00,,,0.00,meteohub,2013-03-18 11:14:00,
2013-03-18 06:19:00,64.2,63.7,29.87,SW,232,1.0,6.0,98,0.00,,,0.00,meteohub,2013-03-18 11:19:00,
2013-03-18 06:24:00,64.4,63.9,29.88,SW,232,2.0,6.0,98,0.00,,,0.00,meteohub,2013-03-18 11:24:00,
2013-03-18 06:29:00,64.6,64.0,29.88,SW,231,2.0,6.0,98,0.00,,,0.00,meteohub,2013-03-18 11:29:00,
2013-03-18 06:34:00,64.6,64.0,29.88,SW,231,3.0,6.0,98,0.00,,,0.00,meteohub,2013-03-18 11:34:00,
2013-03-18 06:39:00,64.6,64.0,29.88,SW,229,2.0,8.0,98,0.00,,,0.00,meteohub,2013-03-18 11:39:00,
2013-03-18 06:44:00,64.8,63.9,29.88,SW,229,1.0,8.0,97,0.00,,,0.00,meteohub,2013-03-18 11:44:00,
2013-03-18 06:49:00,64.8,63.9,29.88,SW,229,4.0,8.0,97,0.00,,,0.00,meteohub,2013-03-18 11:49:00,
2013-03-18 06:54:00,64.9,64.0,29.88,SW,230,3.0,8.0,97,0.00,,,0.00,meteohub,2013-03-18 11:54:00,
2013-03-18 06:59:00,64.9,64.0,29.88,SW,230,2.0,6.0,97,0.00,,,0.00,meteohub,2013-03-18 11:59:00,
2013-03-18 07:05:00,65.1,64.2,29.88,SW,232,3.0,6.0,97,0.00,,,0.00,meteohub,2013-03-18 12:05:00,
2013-03-18 07:10:00,65.1,64.2,29.88,SW,235,6.0,9.0,97,0.00,,,0.00,meteohub,2013-03-18 12:10:00,
2013-03-18 07:15:00,65.3,64.4,29.88,SW,230,3.0,9.0,97,0.00,,,0.00,meteohub,2013-03-18 12:15:00,
2013-03-18 07:20:00,65.3,64.4,29.88,SW,229,2.0,9.0,97,0.00,,,0.00,meteohub,2013-03-18 12:20:00,
2013-03-18 07:25:00,65.5,64.6,29.88,SW,229,4.0,9.0,97,0.00,,,0.00,meteohub,2013-03-18 12:25:00,
2013-03-18 07:30:00,65.5,64.6,29.88,SW,229,4.0,9.0,97,0.00,,,0.00,meteohub,2013-03-18 12:30:00,
2013-03-18 07:35:00,65.5,64.6,29.88,SW,229,2.0,6.0,97,0.00,,,0.00,meteohub,2013-03-18 12:35:00,
2013-03-18 07:40:00,65.7,64.4,29.88,SW,229,4.0,6.0,96,0.00,,,0.00,meteohub,2013-03-18 12:40:00,
2013-03-18 07:45:00,65.7,64.4,29.89,SW,229,3.0,6.0,96,0.00,,,0.00,meteohub,2013-03-18 12:45:00,
2013-03-18 07:50:00,65.8,64.6,29.88,SW,230,1.0,5.0,96,0.00,,,0.00,meteohub,2013-03-18 12:50:00,
2013-03-18 07:55:00,65.8,64.6,29.89,WSW,239,0.0,4.0,96,0.00,,,0.00,meteohub,2013-03-18 12:55:00,
2013-03-18 08:00:00,66.0,64.6,29.89,SW,230,1.0,4.0,95,0.00,,,0.00,meteohub,2013-03-18 13:00:00,
2013-03-18 08:05:00,66.0,64.6,29.89,SW,229,0.0,4.0,95,0.00,,,0.00,meteohub,2013-03-18 13:05:00,
2013-03-18 08:10:00,66.4,64.9,29.89,SW,229,0.0,4.0,95,0.00,,,0.00,meteohub,2013-03-18 13:10:00,
2013-03-18 08:15:00,66.6,65.1,29.89,SW,229,1.0,4.0,95,0.00,,,0.00,meteohub,2013-03-18 13:15:00,
2013-03-18 08:20:00,66.7,64.9,29.89,SW,229,2.0,3.0,94,0.00,,,0.00,meteohub,2013-03-18 13:20:00,
2013-03-18 08:25:00,66.9,65.1,29.89,SW,231,0.0,4.0,94,0.00,,,0.00,meteohub,2013-03-18 13:25:00,
2013-03-18 08:30:00,66.9,65.1,29.90,SW,228,0.0,6.0,94,0.00,,,0.00,meteohub,2013-03-18 13:30:00,
2013-03-18 08:35:00,67.1,65.3,29.89,SW,228,1.0,6.0,94,0.00,,,0.00,meteohub,2013-03-18 13:35:00,
2013-03-18 08:40:00,67.3,65.5,29.90,SW,235,1.0,5.0,94,0.00,,,0.00,meteohub,2013-03-18 13:40:00,
2013-03-18 08:45:00,67.6,65.8,29.90,SW,228,1.0,5.0,94,0.00,,,0.00,meteohub,2013-03-18 13:45:00,
2013-03-18 08:50:00,67.8,66.0,29.90,SW,235,4.0,6.0,94,0.00,,,0.00,meteohub,2013-03-18 13:50:00,
2013-03-18 08:55:00,68.4,66.2,29.90,SW,229,0.0,6.0,93,0.00,,,0.00,meteohub,2013-03-18 13:55:00,
2013-03-18 09:00:00,68.7,66.6,29.90,SW,228,2.0,6.0,93,0.00,,,0.00,meteohub,2013-03-18 14:00:00,
2013-03-18 09:05:00,69.1,66.7,29.90,SW,229,4.0,7.0,92,0.00,,,0.00,meteohub,2013-03-18 14:05:00,
2013-03-18 09:10:00,69.3,66.9,29.90,SW,232,2.0,7.0,92,0.00,,,0.00,meteohub,2013-03-18 14:10:00,
2013-03-18 09:15:00,69.4,66.7,29.89,SW,228,7.0,7.0,91,0.00,,,0.00,meteohub,2013-03-18 14:15:00,
2013-03-18 09:20:00,69.6,66.9,29.90,SW,230,5.0,7.0,91,0.00,,,0.00,meteohub,2013-03-18 14:20:00,
2013-03-18 09:25:00,70.0,67.5,29.90,SW,231,2.0,9.0,92,0.00,,,0.00,meteohub,2013-03-18 14:25:00,
2013-03-18 09:30:00,70.3,67.3,29.89,SW,231,6.0,9.0,90,0.00,,,0.00,meteohub,2013-03-18 14:30:00,
2013-03-18 09:35:00,70.7,68.0,29.89,SW,229,6.0,9.0,91,0.00,,,0.00,meteohub,2013-03-18 14:35:00,
2013-03-18 09:40:00,70.9,67.5,29.89,SW,231,6.0,10.0,89,0.00,,,0.00,meteohub,2013-03-18 14:40:00,
2013-03-18 09:46:00,71.1,67.6,29.89,SW,227,6.0,10.0,89,0.00,,,0.00,meteohub,2013-03-18 14:46:00,
2013-03-18 09:51:00,71.2,68.2,29.89,West,259,4.0,10.0,90,0.00,,,0.00,meteohub,2013-03-18 14:51:00,
2013-03-18 09:56:00,71.4,68.0,29.88,SW,225,3.0,8.0,89,0.00,,,0.00,meteohub,2013-03-18 14:56:00,
2013-03-18 10:01:00,71.8,68.4,29.88,SW,231,8.0,11.0,89,0.00,,,0.00,meteohub,2013-03-18 15:01:00,
2013-03-18 10:06:00,71.8,68.0,29.89,SW,232,5.0,14.0,88,0.00,,,0.00,meteohub,2013-03-18 15:06:00,
2013-03-18 10:11:00,72.0,68.5,29.88,SW,232,3.0,14.0,89,0.00,,,0.00,meteohub,2013-03-18 15:11:00,
2013-03-18 10:16:00,72.1,68.7,29.88,WSW,237,5.0,14.0,89,0.00,,,0.00,meteohub,2013-03-18 15:16:00,
2013-03-18 10:22:00,72.7,68.9,29.88,WNW,286,6.0,8.0,88,0.00,,,0.00,meteohub,2013-03-18 15:22:00,
2013-03-18 10:27:00,73.0,69.3,29.88,SW,232,6.0,9.0,88,0.00,,,0.00,meteohub,2013-03-18 15:27:00,
2013-03-18 10:32:00,73.2,69.1,29.88,SW,228,4.0,10.0,87,0.00,,,0.00,meteohub,2013-03-18 15:32:00,
2013-03-18 10:37:00,73.8,70.0,29.88,WSW,245,12.0,12.0,88,0.00,,,0.00,meteohub,2013-03-18 15:37:00,
2013-03-18 10:42:00,73.9,69.8,29.89,SW,228,6.0,12.0,87,0.00,,,0.00,meteohub,2013-03-18 15:42:00,
2013-03-18 10:47:00,74.5,70.3,29.89,WSW,237,5.0,12.0,87,0.00,,,0.00,meteohub,2013-03-18 15:47:00,
2013-03-18 10:52:00,75.0,70.2,29.88,WSW,239,7.0,12.0,85,0.00,,,0.00,meteohub,2013-03-18 15:52:00,
2013-03-18 10:57:00,75.4,70.2,29.88,WSW,253,1.0,11.0,84,0.00,,,0.00,meteohub,2013-03-18 15:57:00,
2013-03-18 11:02:00,76.1,70.9,29.88,SW,232,7.0,11.0,84,0.00,,,0.00,meteohub,2013-03-18 16:02:00,
2013-03-18 11:07:00,76.6,71.4,29.88,WNW,286,3.0,11.0,84,0.00,,,0.00,meteohub,2013-03-18 16:07:00,
2013-03-18 11:12:00,76.6,70.7,29.88,WSW,241,3.0,11.0,82,0.00,,,0.00,meteohub,2013-03-18 16:12:00,
2013-03-18 11:17:00,76.8,70.5,29.88,WNW,286,2.0,12.0,81,0.00,,,0.00,meteohub,2013-03-18 16:17:00,
2013-03-18 11:22:00,76.8,70.5,29.88,WSW,250,3.0,12.0,81,0.00,,,0.00,meteohub,2013-03-18 16:22:00,
2013-03-18 11:27:00,77.0,70.7,29.88,WSW,239,4.0,10.0,81,0.00,,,0.00,meteohub,2013-03-18 16:27:00,
2013-03-18 11:32:00,76.6,70.0,29.87,WSW,237,2.0,10.0,80,0.00,,,0.00,meteohub,2013-03-18 16:32:00,
2013-03-18 11:38:00,77.2,71.6,29.87,West,263,3.0,11.0,83,0.00,,,0.00,meteohub,2013-03-18 16:38:00,
2013-03-18 11:43:00,77.4,70.7,29.87,WNW,284,3.0,11.0,80,0.00,,,0.00,meteohub,2013-03-18 16:43:00,
2013-03-18 11:48:00,77.0,70.3,29.87,WSW,241,7.0,11.0,80,0.00,,,0.00,meteohub,2013-03-18 16:48:00,
2013-03-18 11:53:00,77.4,71.1,29.87,WSW,252,5.0,10.0,81,0.00,,,0.00,meteohub,2013-03-18 16:53:00,
2013-03-18 11:58:00,77.5,71.2,29.87,WSW,238,7.0,12.0,81,0.00,,,0.00,meteohub,2013-03-18 16:58:00,
2013-03-18 12:03:00,78.3,71.2,29.87,WNW,294,4.0,12.0,79,0.00,,,0.00,meteohub,2013-03-18 17:03:00,
2013-03-18 12:08:00,78.4,71.1,29.87,WSW,241,2.0,12.0,78,0.00,,,0.00,meteohub,2013-03-18 17:08:00,
2013-03-18 12:13:00,78.3,70.5,29.87,West,260,5.0,8.0,77,0.00,,,0.00,meteohub,2013-03-18 17:13:00,
2013-03-18 12:18:00,77.7,70.7,29.87,WNW,290,2.0,9.0,79,0.00,,,0.00,meteohub,2013-03-18 17:18:00,
2013-03-18 12:23:00,77.2,70.2,29.88,West,279,7.0,9.0,79,0.00,,,0.00,meteohub,2013-03-18 17:23:00,
2013-03-18 12:28:00,76.5,70.2,29.88,West,280,2.0,9.0,81,0.00,,,0.00,meteohub,2013-03-18 17:28:00,
2013-03-18 12:33:00,76.1,69.8,29.88,West,279,3.0,7.0,81,0.00,,,0.00,meteohub,2013-03-18 17:33:00,
2013-03-18 12:38:00,75.9,70.0,29.87,WSW,245,4.0,7.0,82,0.00,,,0.00,meteohub,2013-03-18 17:38:00,
2013-03-18 12:43:00,76.5,70.5,29.87,SW,227,3.0,8.0,82,0.00,,,0.00,meteohub,2013-03-18 17:43:00,
2013-03-18 12:48:00,77.2,71.2,29.87,WSW,254,5.0,8.0,82,0.00,,,0.00,meteohub,2013-03-18 17:48:00,
2013-03-18 12:53:00,77.4,70.3,29.87,WSW,237,4.0,11.0,79,0.00,,,0.00,meteohub,2013-03-18 17:53:00,
2013-03-18 12:58:00,77.2,70.5,29.87,WSW,252,10.0,11.0,80,0.00,,,0.00,meteohub,2013-03-18 17:58:00,
2013-03-18 13:03:00,77.2,70.5,29.86,SW,228,6.0,11.0,80,0.00,,,0.00,meteohub,2013-03-18 18:03:00,
2013-03-18 13:08:00,77.5,71.2,29.86,WNW,291,4.0,11.0,81,0.00,,,0.00,meteohub,2013-03-18 18:08:00,
2013-03-18 13:13:00,78.1,70.7,29.86,WNW,286,6.0,11.0,78,0.00,,,0.00,meteohub,2013-03-18 18:13:00,
2013-03-18 13:18:00,78.1,71.4,29.86,WNW,296,6.0,14.0,80,0.00,,,0.00,meteohub,2013-03-18 18:18:00,
2013-03-18 13:23:00,78.1,71.1,29.86,West,280,8.0,14.0,79,0.00,,,0.00,meteohub,2013-03-18 18:23:00,
2013-03-18 13:28:00,78.3,71.2,29.85,SW,231,2.0,14.0,79,0.00,,,0.00,meteohub,2013-03-18 18:28:00,
2013-03-18 13:33:00,78.6,71.6,29.84,West,262,8.0,9.0,79,0.00,,,0.00,meteohub,2013-03-18 18:33:00,
2013-03-18 13:38:00,78.6,71.6,29.84,WSW,256,3.0,12.0,79,0.00,,,0.00,meteohub,2013-03-18 18:38:00,
2013-03-18 13:43:00,79.0,71.6,29.84,WSW,237,8.0,12.0,78,0.00,,,0.00,meteohub,2013-03-18 18:43:00,
2013-03-18 13:48:00,79.2,71.8,29.84,WSW,246,3.0,12.0,78,0.00,,,0.00,meteohub,2013-03-18 18:48:00,
2013-03-18 13:53:00,78.8,71.4,29.83,WNW,282,4.0,12.0,78,0.00,,,0.00,meteohub,2013-03-18 18:53:00,
2013-03-18 13:58:00,78.4,71.1,29.83,WSW,255,4.0,12.0,78,0.00,,,0.00,meteohub,2013-03-18 18:58:00,
2013-03-18 14:03:00,78.1,71.1,29.83,WSW,252,2.0,12.0,79,0.00,,,0.00,meteohub,2013-03-18 19:03:00,
2013-03-18 14:08:00,77.7,71.1,29.83,West,274,4.0,12.0,80,0.00,,,0.00,meteohub,2013-03-18 19:08:00,
2013-03-18 14:13:00,78.1,71.4,29.83,WSW,246,4.0,12.0,80,0.00,,,0.00,meteohub,2013-03-18 19:13:00,
2013-03-18 14:18:00,78.1,71.1,29.82,WSW,256,3.0,8.0,79,0.00,,,0.00,meteohub,2013-03-18 19:18:00,
2013-03-18 14:23:00,77.7,71.1,29.82,SW,229,5.0,8.0,80,0.00,,,0.00,meteohub,2013-03-18 19:23:00,
2013-03-18 14:28:00,77.7,71.1,29.81,WSW,252,6.0,8.0,80,0.00,,,0.00,meteohub,2013-03-18 19:28:00,
2013-03-18 14:33:00,77.9,71.2,29.81,WSW,246,7.0,13.0,80,0.00,,,0.00,meteohub,2013-03-18 19:33:00,
2013-03-18 14:38:00,77.5,70.9,29.81,WSW,244,6.0,17.0,80,0.00,,,0.00,meteohub,2013-03-18 19:38:00,
2013-03-18 14:43:00,77.5,70.9,29.81,WSW,248,6.0,17.0,80,0.00,,,0.00,meteohub,2013-03-18 19:43:00,
2013-03-18 14:48:00,77.4,70.7,29.81,SW,232,3.0,17.0,80,0.00,,,0.00,meteohub,2013-03-18 19:48:00,
2013-03-18 14:53:00,77.4,70.7,29.80,WSW,246,4.0,13.0,80,0.00,,,0.00,meteohub,2013-03-18 19:53:00,
2013-03-18 14:58:00,77.4,70.7,29.80,West,277,4.0,14.0,80,0.00,,,0.00,meteohub,2013-03-18 19:58:00,
2013-03-18 15:03:00,77.4,71.1,29.79,WSW,242,4.0,14.0,81,0.00,,,0.00,meteohub,2013-03-18 20:03:00,
2013-03-18 15:08:00,77.5,70.9,29.79,WSW,244,5.0,14.0,80,0.00,,,0.00,meteohub,2013-03-18 20:08:00,
2013-03-18 15:13:00,77.4,71.1,29.80,WSW,238,7.0,13.0,81,0.00,,,0.00,meteohub,2013-03-18 20:13:00,
2013-03-18 15:18:00,77.2,70.9,29.79,SW,232,6.0,13.0,81,0.00,,,0.00,meteohub,2013-03-18 20:18:00,
2013-03-18 15:24:00,76.6,70.7,29.79,WSW,241,4.0,13.0,82,0.00,,,0.00,meteohub,2013-03-18 20:24:00,
2013-03-18 15:29:00,76.8,70.5,29.79,WNW,282,2.0,13.0,81,0.00,,,0.00,meteohub,2013-03-18 20:29:00,
2013-03-18 15:34:00,76.6,70.7,29.80,SW,232,4.0,10.0,82,0.00,,,0.00,meteohub,2013-03-18 20:34:00,
2013-03-18 15:39:00,76.5,70.5,29.80,WSW,253,3.0,9.0,82,0.00,,,0.00,meteohub,2013-03-18 20:39:00,
2013-03-18 15:44:00,76.6,70.7,29.80,WNW,283,3.0,8.0,82,0.00,,,0.00,meteohub,2013-03-18 20:44:00,
2013-03-18 15:49:00,76.6,70.3,29.80,WSW,245,1.0,8.0,81,0.00,,,0.00,meteohub,2013-03-18 20:49:00,
2013-03-18 15:54:00,76.6,70.7,29.80,West,260,3.0,6.0,82,0.00,,,0.00,meteohub,2013-03-18 20:54:00,
2013-03-18 15:59:00,76.3,70.3,29.80,West,273,3.0,11.0,82,0.00,,,0.00,meteohub,2013-03-18 20:59:00,
2013-03-18 16:04:00,76.3,70.3,29.79,WSW,241,5.0,11.0,82,0.00,,,0.00,meteohub,2013-03-18 21:04:00,
2013-03-18 16:09:00,76.3,70.3,29.79,West,276,2.0,11.0,82,0.00,,,0.00,meteohub,2013-03-18 21:09:00,
2013-03-18 16:14:00,76.3,70.3,29.79,WSW,239,3.0,11.0,82,0.00,,,0.00,meteohub,2013-03-18 21:14:00,
2013-03-18 16:19:00,76.3,70.3,29.79,WNW,282,4.0,11.0,82,0.00,,,0.00,meteohub,2013-03-18 21:19:00,
2013-03-18 16:24:00,76.1,70.2,29.79,West,265,1.0,11.0,82,0.00,,,0.00,meteohub,2013-03-18 21:24:00,
2013-03-18 16:29:00,75.7,70.5,29.79,West,273,2.0,7.0,84,0.00,,,0.00,meteohub,2013-03-18 21:29:00,
2013-03-18 16:34:00,75.6,70.7,29.79,West,259,1.0,7.0,85,0.00,,,0.00,meteohub,2013-03-18 21:34:00,
2013-03-18 16:39:00,75.4,70.5,29.78,SW,227,3.0,6.0,85,0.00,,,0.00,meteohub,2013-03-18 21:39:00,
2013-03-18 16:44:00,75.2,70.3,29.78,WSW,249,3.0,6.0,85,0.00,,,0.00,meteohub,2013-03-18 21:44:00,
2013-03-18 16:49:00,75.0,70.5,29.78,West,267,2.0,7.0,86,0.00,,,0.00,meteohub,2013-03-18 21:49:00,
2013-03-18 16:54:00,75.0,70.5,29.78,WSW,252,4.0,9.0,86,0.00,,,0.00,meteohub,2013-03-18 21:54:00,
2013-03-18 16:59:00,75.0,70.5,29.77,SW,227,7.0,9.0,86,0.00,,,0.00,meteohub,2013-03-18 21:59:00,
2013-03-18 17:04:00,75.0,70.5,29.77,West,276,3.0,9.0,86,0.00,,,0.00,meteohub,2013-03-18 22:04:00,
2013-03-18 17:09:00,74.7,70.5,29.77,SW,234,4.0,7.0,87,0.00,,,0.00,meteohub,2013-03-18 22:09:00,
2013-03-18 17:14:00,74.5,70.3,29.77,SW,227,1.0,7.0,87,0.00,,,0.00,meteohub,2013-03-18 22:14:00,
2013-03-18 17:19:00,74.5,70.3,29.77,WSW,249,2.0,6.0,87,0.00,,,0.00,meteohub,2013-03-18 22:19:00,
2013-03-18 17:24:00,74.5,70.3,29.77,WNW,283,4.0,6.0,87,0.00,,,0.00,meteohub,2013-03-18 22:24:00,
2013-03-18 17:29:00,74.5,70.3,29.77,WSW,258,4.0,6.0,87,0.00,,,0.00,meteohub,2013-03-18 22:29:00,
2013-03-18 17:34:00,74.3,70.2,29.77,West,265,3.0,6.0,87,0.00,,,0.00,meteohub,2013-03-18 22:34:00,
2013-03-18 17:39:00,74.1,70.3,29.77,West,280,3.0,6.0,88,0.00,,,0.00,meteohub,2013-03-18 22:39:00,
2013-03-18 17:44:00,73.9,70.2,29.77,West,265,1.0,6.0,88,0.00,,,0.00,meteohub,2013-03-18 22:44:00,
2013-03-18 17:49:00,73.8,70.0,29.77,SW,225,2.0,5.0,88,0.00,,,0.00,meteohub,2013-03-18 22:49:00,
2013-03-18 17:55:00,73.6,70.2,29.78,WSW,255,2.0,5.0,89,0.00,,,0.00,meteohub,2013-03-18 22:55:00,
2013-03-18 18:00:00,73.6,70.2,29.78,WSW,244,0.0,7.0,89,0.00,,,0.00,meteohub,2013-03-18 23:00:00,
2013-03-18 18:05:00,73.2,69.8,29.78,West,270,1.0,7.0,89,0.00,,,0.00,meteohub,2013-03-18 23:05:00,
2013-03-18 18:10:00,73.2,69.8,29.78,WNW,287,2.0,7.0,89,0.00,,,0.00,meteohub,2013-03-18 23:10:00,
2013-03-18 18:15:00,73.0,70.0,29.78,WSW,248,2.0,4.0,90,0.00,,,0.00,meteohub,2013-03-18 23:15:00,
2013-03-18 18:20:00,72.9,69.8,29.78,WNW,286,4.0,4.0,90,0.00,,,0.00,meteohub,2013-03-18 23:20:00,
2013-03-18 18:25:00,72.7,69.6,29.78,WSW,252,3.0,5.0,90,0.00,,,0.00,meteohub,2013-03-18 23:25:00,
2013-03-18 18:30:00,72.5,69.8,29.78,West,276,2.0,5.0,91,0.00,,,0.00,meteohub,2013-03-18 23:30:00,
2013-03-18 18:35:00,72.3,69.6,29.78,WSW,253,1.0,5.0,91,0.00,,,0.00,meteohub,2013-03-18 23:35:00,
2013-03-18 18:40:00,72.3,69.6,29.79,SW,223,2.0,4.0,91,0.00,,,0.00,meteohub,2013-03-18 23:40:00,
2013-03-18 18:45:00,72.1,69.6,29.79,SW,225,0.0,4.0,92,0.00,,,0.00,meteohub,2013-03-18 23:45:00,
2013-03-18 18:50:00,72.1,69.6,29.79,SW,224,1.0,6.0,92,0.00,,,0.00,meteohub,2013-03-18 23:50:00,
2013-03-18 18:55:00,72.0,69.4,29.79,SW,234,0.0,6.0,92,0.00,,,0.00,meteohub,2013-03-18 23:55:00,
2013-03-18 19:00:00,72.0,69.4,29.79,SW,228,1.0,6.0,92,0.00,,,0.00,meteohub,2013-03-19 00:00:00,
2013-03-18 19:05:00,72.0,69.4,29.79,SW,224,1.0,3.0,92,0.00,,,0.00,meteohub,2013-03-19 00:05:00,
2013-03-18 19:10:00,71.8,69.3,29.79,WSW,248,0.0,2.0,92,0.00,,,0.00,meteohub,2013-03-19 00:10:00,
2013-03-18 19:15:00,71.8,69.3,29.80,West,260,1.0,3.0,92,0.00,,,0.00,meteohub,2013-03-19 00:15:00,
2013-03-18 19:20:00,71.6,69.1,29.80,SW,235,0.0,3.0,92,0.00,,,0.00,meteohub,2013-03-19 00:20:00,
2013-03-18 19:25:00,71.4,69.3,29.80,SW,224,2.0,3.0,93,0.00,,,0.00,meteohub,2013-03-19 00:25:00,
2013-03-18 19:30:00,71.4,69.3,29.79,SW,228,1.0,2.0,93,0.00,,,0.00,meteohub,2013-03-19 00:30:00,
2013-03-18 19:35:00,71.2,69.1,29.80,SW,224,2.0,4.0,93,0.00,,,0.00,meteohub,2013-03-19 00:35:00,
2013-03-18 19:40:00,71.2,69.1,29.80,SW,224,0.0,5.0,93,0.00,,,0.00,meteohub,2013-03-19 00:40:00,
2013-03-18 19:45:00,71.1,68.9,29.80,SW,224,0.0,5.0,93,0.00,,,0.00,meteohub,2013-03-19 00:45:00,
2013-03-18 19:50:00,71.1,68.9,29.81,SW,224,1.0,3.0,93,0.00,,,0.00,meteohub,2013-03-19 00:50:00,
2013-03-18 19:55:00,71.1,69.3,29.81,SW,224,0.0,2.0,94,0.00,,,0.00,meteohub,2013-03-19 00:55:00,
2013-03-18 20:00:00,70.9,69.1,29.81,SW,224,0.0,1.0,94,0.00,,,0.00,meteohub,2013-03-19 01:00:00,
2013-03-18 20:05:00,70.9,69.1,29.81,SW,223,0.0,1.0,94,0.00,,,0.00,meteohub,2013-03-19 01:05:00,
2013-03-18 20:10:00,70.9,69.1,29.81,SW,223,0.0,1.0,94,0.00,,,0.00,meteohub,2013-03-19 01:10:00,
2013-03-18 20:15:00,70.9,69.1,29.81,SW,224,0.0,0.0,94,0.00,,,0.00,meteohub,2013-03-19 01:15:00,
2013-03-18 20:20:00,70.7,68.9,29.81,SW,224,0.0,0.0,94,0.00,,,0.00,meteohub,2013-03-19 01:20:00,
2013-03-18 20:25:00,70.5,68.7,29.82,SW,224,0.0,0.0,94,0.00,,,0.00,meteohub,2013-03-19 01:25:00,
2013-03-18 20:30:00,70.5,68.7,29.82,SW,223,0.0,1.0,94,0.00,,,0.00,meteohub,2013-03-19 01:30:00,
2013-03-18 20:35:00,70.5,69.1,29.82,SW,224,0.0,1.0,95,0.00,,,0.00,meteohub,2013-03-19 01:35:00,
2013-03-18 20:40:00,70.5,69.1,29.82,SW,224,0.0,0.0,95,0.00,,,0.00,meteohub,2013-03-19 01:40:00,
2013-03-18 20:45:00,70.3,68.9,29.82,SW,224,0.0,0.0,95,0.00,,,0.00,meteohub,2013-03-19 01:45:00,
2013-03-18 20:50:00,70.2,68.7,29.82,SW,224,0.0,0.0,95,0.00,,,0.00,meteohub,2013-03-19 01:50:00,
2013-03-18 20:55:00,70.2,68.7,29.83,SW,224,0.0,0.0,95,0.00,,,0.00,meteohub,2013-03-19 01:55:00,
2013-03-18 21:00:00,70.2,68.7,29.83,SW,223,0.0,0.0,95,0.00,,,0.00,meteohub,2013-03-19 02:00:00,
2013-03-18 21:05:00,70.2,68.7,29.83,SW,224,0.0,0.0,95,0.00,,,0.00,meteohub,2013-03-19 02:05:00,
2013-03-18 21:10:00,70.3,68.9,29.83,SW,224,0.0,1.0,95,0.00,,,0.00,meteohub,2013-03-19 02:10:00,
2013-03-18 21:15:00,70.2,68.9,29.83,SW,223,0.0,1.0,96,0.00,,,0.00,meteohub,2013-03-19 02:15:00,
2013-03-18 21:21:00,70.2,68.7,29.83,SW,224,0.0,1.0,95,0.00,,,0.00,meteohub,2013-03-19 02:21:00,
2013-03-18 21:26:00,70.2,68.9,29.83,SW,224,0.0,0.0,96,0.00,,,0.00,meteohub,2013-03-19 02:26:00,
2013-03-18 21:31:00,70.0,68.7,29.83,SW,224,1.0,0.0,96,0.00,,,0.00,meteohub,2013-03-19 02:31:00,
2013-03-18 21:36:00,69.8,68.5,29.83,WSW,244,2.0,2.0,96,0.00,,,0.00,meteohub,2013-03-19 02:36:00,
2013-03-18 21:41:00,70.0,68.7,29.83,SW,232,0.0,3.0,96,0.00,,,0.00,meteohub,2013-03-19 02:41:00,
2013-03-18 21:46:00,70.0,68.7,29.83,SW,234,1.0,3.0,96,0.00,,,0.00,meteohub,2013-03-19 02:46:00,
2013-03-18 21:51:00,69.8,68.5,29.82,SW,224,3.0,3.0,96,0.00,,,0.00,meteohub,2013-03-19 02:51:00,
2013-03-18 21:56:00,69.6,68.4,29.82,SW,228,2.0,4.0,96,0.00,,,0.00,meteohub,2013-03-19 02:56:00,
2013-03-18 22:01:00,69.6,68.4,29.82,SW,224,3.0,4.0,96,0.00,,,0.00,meteohub,2013-03-19 03:01:00,
2013-03-18 22:06:00,69.6,68.7,29.83,SW,232,0.0,5.0,97,0.00,,,0.00,meteohub,2013-03-19 03:06:00,
2013-03-18 22:11:00,69.6,68.7,29.83,SW,232,0.0,5.0,97,0.00,,,0.00,meteohub,2013-03-19 03:11:00,
2013-03-18 22:16:00,69.6,68.7,29.82,SW,223,2.0,3.0,97,0.00,,,0.00,meteohub,2013-03-19 03:16:00,
2013-03-18 22:21:00,69.6,68.7,29.83,West,269,1.0,3.0,97,0.00,,,0.00,meteohub,2013-03-19 03:21:00,
2013-03-18 22:27:00,69.6,68.7,29.83,West,269,1.0,3.0,97,0.00,,,0.00,meteohub,2013-03-19 03:27:00,
2013-03-18 22:32:00,69.6,68.7,29.83,WSW,258,1.0,3.0,97,0.00,,,0.00,meteohub,2013-03-19 03:32:00,
2013-03-18 22:37:00,69.6,68.7,29.82,WSW,244,1.0,4.0,97,0.00,,,0.00,meteohub,2013-03-19 03:37:00,
2013-03-18 22:42:00,69.6,68.7,29.84,West,265,0.0,5.0,97,0.00,,,0.00,meteohub,2013-03-19 03:42:00,
2013-03-18 22:47:00,69.4,68.5,29.84,West,273,0.0,5.0,97,0.00,,,0.00,meteohub,2013-03-19 03:47:00,
2013-03-18 22:52:00,69.4,68.5,29.83,West,259,0.0,4.0,97,0.00,,,0.00,meteohub,2013-03-19 03:52:00,
2013-03-18 22:57:00,69.4,68.9,29.84,West,259,0.0,2.0,98,0.00,,,0.00,meteohub,2013-03-19 03:57:00,
2013-03-18 23:00:00,69.4,68.5,29.84,West,259,0.0,2.0,97,0.00,,,0.00,meteohub,2013-03-19 04:00:00,
2013-03-18 23:01:00,69.4,68.5,29.83,SW,228,0.0,1.0,97,0.00,,,0.00,meteohub,2013-03-19 04:01:00,
2013-03-18 23:06:00,69.3,68.7,29.83,SW,227,0.0,1.0,98,0.00,,,0.00,meteohub,2013-03-19 04:06:00,
2013-03-18 23:11:00,69.3,68.7,29.84,WSW,239,0.0,1.0,98,0.00,,,0.00,meteohub,2013-03-19 04:11:00,
2013-03-18 23:16:00,69.3,68.7,29.84,WSW,239,0.0,1.0,98,0.00,,,0.00,meteohub,2013-03-19 04:16:00,
2013-03-18 23:21:00,69.3,68.7,29.85,WSW,252,2.0,2.0,98,0.00,,,0.00,meteohub,2013-03-19 04:21:00,
2013-03-18 23:26:00,69.3,68.7,29.86,West,267,0.0,3.0,98,0.00,,,0.00,meteohub,2013-03-19 04:26:00,
2013-03-18 23:32:00,69.1,68.5,29.86,West,266,1.0,3.0,98,0.00,,,0.00,meteohub,2013-03-19 04:32:00,
2013-03-18 23:37:00,69.3,68.7,29.86,West,265,0.0,3.0,98,0.00,,,0.00,meteohub,2013-03-19 04:37:00,
2013-03-18 23:42:00,69.1,68.5,29.86,West,262,2.0,3.0,98,0.00,,,0.00,meteohub,2013-03-19 04:42:00,
2013-03-18 23:47:00,69.1,68.5,29.86,West,266,0.0,3.0,98,0.00,,,0.00,meteohub,2013-03-19 04:47:00,
2013-03-18 23:52:00,69.1,68.5,29.86,West,265,0.0,3.0,98,0.00,,,0.00,meteohub,2013-03-19 04:52:00,
2013-03-18 23:57:00,68.9,68.4,29.85,West,263,0.0,3.0,98,0.00,,,0.00,meteohub,2013-03-19 04:57:00,